Latest Weather Observations for Keith West

IDS60801

Issued at 5:05 pm CDT Wednesday 26 November 2014 (issued every 30 minutes, with the page automatically refreshed every 10 minutes)

About weather observations | Map of weather stations | Latest weather observations for SA | Other Formats
Station Details ID: 025557 Name: MUNKORA Lat: -36.11 Lon: 140.33 Height: 27.0 m
Data from the previous 72 hours. | See also: Recent months for locations in South Australia
Date/Time
CDT
Temp
°C
App
Temp
°C
Dew
Point
Rel
Hum
%
Delta-T
°C
Wind Press
QNH
hPa
Press
MSL
hPa
Rain
since 9 am
mm
Dir
 
Spd
km/h
Gust
km/h
Spd
kts
Gust
kts
26/05:00pm 21.1 16.7 9.0 46 6.4 SSE 22 28 12 15 1021.4 1021.4 0.0
26/04:30pm 22.2 19.5 9.0 43 7.0 SSW 13 32 7 17 1021.5 1021.5 0.0
26/04:00pm 21.5 17.3 8.4 43 6.9 SSW 20 26 11 14 1021.8 1021.8 0.0
26/03:30pm 22.1 18.3 8.9 43 7.0 SW 19 33 10 18 1022.0 1022.0 0.0
26/03:00pm 23.1 19.5 8.4 39 7.8 SSW 17 28 9 15 1022.3 1022.3 0.0
26/02:30pm 21.8 17.6 8.3 42 7.1 WSW 20 30 11 16 1022.6 1022.6 0.0
26/02:00pm 19.6 16.9 7.4 45 6.2 S 11 22 6 12 1023.0 1023.0 0.0
26/01:30pm 19.9 17.6 7.3 44 6.4 S 9 19 5 10 1023.3 1023.3 0.0
26/01:00pm 19.2 15.9 7.9 48 5.8 WSW 15 22 8 12 1023.6 1023.6 0.0
26/12:30pm 18.6 14.8 7.7 49 5.5 SW 17 22 9 12 1023.8 1023.8 0.0
26/12:00pm 19.5 17.0 8.2 48 5.8 SW 11 24 6 13 1023.9 1023.9 0.0
26/11:30am 19.0 15.9 7.4 47 5.9 SSW 13 20 7 11 1023.9 1023.9 0.0
26/11:00am 17.9 14.4 7.3 50 5.3 SW 15 22 8 12 1024.0 1024.0 0.0
26/10:30am 17.1 14.4 7.2 52 4.9 SSW 11 19 6 10 1024.1 1024.1 0.0
26/10:00am 16.5 13.4 7.4 55 4.5 SW 13 20 7 11 1024.0 1024.0 0.0
26/09:30am 16.1 13.0 7.3 56 4.4 S 13 19 7 10 1024.0 1024.0 0.0
26/09:00am 15.5 12.8 7.3 58 4.0 S 11 17 6 9 1023.7 1023.7 0.0
26/08:30am 14.6 12.8 7.2 61 3.6 S 6 9 3 5 1023.6 1023.6 0.0
26/08:00am 13.0 12.5 7.9 71 2.5 CALM 0 0 0 0 1023.4 1023.4 0.0
26/07:30am 11.2 10.2 7.5 78 1.8 N 2 4 1 2 1023.3 1023.3 0.0
26/07:00am 10.3 9.0 7.7 84 1.3 N 4 6 2 3 1022.8 1022.8 0.0
26/06:30am 9.2 8.6 7.3 88 0.9 CALM 0 0 0 0 1022.4 1022.4 0.0
26/06:00am 8.0 7.2 6.5 90 0.7 CALM 0 0 0 0 1022.4 1022.4 0.0
26/05:30am 7.3 6.4 6.1 92 0.5 CALM 0 0 0 0 1022.3 1022.3 0.0
26/05:00am 6.0 4.8 4.8 92 0.5 CALM 0 0 0 0 1022.1 1022.1 0.0
26/04:30am 4.6 3.1 3.1 90 0.6 CALM 0 0 0 0 1021.7 1021.7 0.0
26/04:00am 4.6 2.7 2.9 89 0.7 W 2 4 1 2 1021.7 1021.7 0.0
26/03:30am 5.4 3.6 3.7 89 0.7 W 2 4 1 2 1021.6 1021.6 0.0
26/03:00am 5.3 3.9 3.3 87 0.8 CALM 0 0 0 0 1021.7 1021.7 0.0
26/02:30am 5.7 4.3 3.7 87 0.8 CALM 0 0 0 0 1021.7 1021.7 0.0
26/02:00am 6.2 4.9 3.9 85 1.0 CALM 0 0 0 0 1021.9 1021.9 0.0
26/01:30am 7.3 6.1 4.4 82 1.3 CALM 0 0 0 0 1022.1 1022.1 0.0
26/01:00am 8.8 6.9 4.8 76 1.8 S 4 4 2 2 1022.3 1022.3 0.0
26/12:30am 9.6 7.4 6.1 79 1.6 S 7 9 4 5 1022.6 1022.6 0.0
26/12:00am 10.4 7.9 6.4 76 1.9 SSW 9 13 5 7 1022.8 1022.8 0.0
 
Date/Time
CDT
Temp
°C
App
Temp
°C
Dew
Point
Rel
Hum
%
Delta-T
°C
Wind Press
QNH
hPa
Press
MSL
hPa
Rain
since 9 am
mm
Dir
 
Spd
km/h
Gust
km/h
Spd
kts
Gust
kts
25/11:30pm 11.0 8.1 6.6 74 2.1 SSW 11 13 6 7 1022.9 1022.9 0.0
25/11:00pm 10.7 8.5 6.1 73 2.1 SW 7 9 4 5 1023.0 1023.0 0.0
25/10:30pm 10.8 8.5 5.8 71 2.3 SW 7 11 4 6 1023.3 1023.3 0.0
25/10:00pm 11.7 9.1 6.0 68 2.7 SW 9 13 5 7 1023.3 1023.3 0.0
25/09:30pm 12.7 9.7 6.1 64 3.1 SW 11 15 6 8 1023.1 1023.1 0.0
25/09:00pm 13.0 10.1 6.4 64 3.1 SW 11 13 6 7 1023.0 1023.0 0.0
25/08:30pm 13.9 11.0 6.5 61 3.5 SW 11 15 6 8 1022.7 1022.7 0.0
25/08:00pm 15.2 11.5 6.5 56 4.2 SW 15 22 8 12 1022.3 1022.3 0.0
25/07:30pm 16.4 11.9 6.0 50 5.0 SW 19 26 10 14 1022.2 1022.2 0.0
25/07:00pm 17.8 13.2 5.4 44 6.0 SW 19 24 10 13 1021.8 1021.8 0.0
25/06:30pm 18.0 13.1 4.9 42 6.3 SW 20 30 11 16 1021.5 1021.5 0.0
25/06:00pm 17.7 12.7 6.3 47 5.6 SW 22 32 12 17 1021.4 1021.4 0.0
25/05:30pm 19.5 14.5 6.3 42 6.6 SW 22 32 12 17 1021.3 1021.3 0.0
25/05:00pm 19.4 14.8 5.8 41 6.7 SW 19 33 10 18 1021.2 1021.2 0.0
25/04:30pm 19.6 13.4 4.1 36 7.4 SW 26 39 14 21 1021.2 1021.2 0.0
25/04:00pm 21.1 15.1 5.5 36 7.7 WSW 26 33 14 18 1021.2 1021.2 0.0
25/03:30pm 20.9 15.3 5.3 36 7.7 SW 24 33 13 18 1021.1 1021.1 0.0
25/03:00pm 20.1 14.0 4.6 36 7.5 WSW 26 39 14 21 1021.2 1021.2 0.0
25/02:30pm 21.5 15.9 3.7 31 8.5 SW 22 35 12 19 1021.3 1021.3 0.0
25/02:00pm 21.3 15.8 4.0 32 8.4 WSW 22 35 12 19 1021.4 1021.4 0.0
25/01:30pm 20.3 14.9 4.4 35 7.7 WSW 22 41 12 22 1021.5 1021.5 0.0
25/01:00pm 20.8 14.9 4.0 33 8.1 SW 24 37 13 20 1021.6 1021.6 0.0
25/12:30pm 21.0 16.5 4.1 33 8.1 W 17 22 9 12 1021.9 1021.9 0.0
25/12:00pm 20.1 14.6 3.8 34 7.7 SW 22 30 12 16 1022.0 1022.0 0.0
25/11:30am 19.1 13.8 4.8 39 6.9 W 22 33 12 18 1022.1 1022.1 0.0
25/11:00am 19.3 14.5 5.4 40 6.8 W 20 32 11 17 1022.0 1022.0 0.0
25/10:30am 18.1 13.3 4.7 41 6.4 WSW 19 32 10 17 1022.0 1022.0 0.0
25/10:00am 18.8 13.6 3.4 36 7.2 WSW 20 30 11 16 1022.0 1022.0 0.0
25/09:30am 16.8 11.9 5.1 46 5.6 WSW 20 30 11 16 1022.0 1022.0 0.0
25/09:00am 16.3 12.6 6.2 51 4.9 SW 15 24 8 13 1021.7 1021.7 2.0
25/08:30am 16.4 13.6 8.6 60 4.0 SW 13 19 7 10 1021.5 1021.5 2.0
25/08:00am 14.3 12.4 8.9 70 2.7 WSW 9 13 5 7 1021.3 1021.3 2.0
25/07:30am 12.0 10.8 9.6 85 1.2 WNW 6 7 3 4 1021.0 1021.0 2.0
25/07:00am 9.4 7.8 8.0 91 0.7 NNW 6 6 3 3 1020.8 1020.8 2.0
25/06:30am 7.0 5.3 5.8 92 0.5 N 4 6 2 3 1020.4 1020.4 2.0
25/06:00am 6.0 3.7 4.8 92 0.5 N 6 9 3 5 1019.9 1019.9 2.0
25/05:30am 5.9 3.4 4.5 91 0.6 N 7 9 4 5 1019.5 1019.5 2.0
25/05:00am 6.5 4.3 5.1 91 0.6 NNW 6 7 3 4 1019.0 1019.0 2.0
25/04:30am 6.7 4.5 5.2 90 0.7 NW 6 7 3 4 1018.8 1018.8 2.0
25/04:00am 7.2 4.5 5.8 91 0.6 NNW 9 11 5 6 1018.7 1018.7 2.0
25/03:30am 7.6 5.4 6.1 90 0.7 NNW 7 9 4 5 1018.3 1018.3 2.0
25/03:00am 7.4 5.1 5.7 89 0.8 NNW 7 9 4 5 1018.3 1018.3 2.0
25/02:30am 8.9 6.3 6.3 84 1.2 WSW 9 9 5 5 1018.3 1018.3 2.0
25/02:00am 10.0 7.4 7.9 87 1.0 WSW 11 15 6 8 1018.4 1018.4 2.0
25/01:30am 10.1 7.8 7.3 83 1.3 WSW 9 11 5 6 1018.4 1018.4 2.0
25/01:00am 9.9 8.0 7.5 85 1.1 WNW 7 9 4 5 1018.5 1018.5 2.0
25/12:30am 8.8 6.6 6.4 85 1.1 NW 7 9 4 5 1018.5 1018.5 2.0
25/12:00am 9.6 7.2 6.9 83 1.3 NNW 9 11 5 6 1018.4 1018.4 2.0
 
Date/Time
CDT
Temp
°C
App
Temp
°C
Dew
Point
Rel
Hum
%
Delta-T
°C
Wind Press
QNH
hPa
Press
MSL
hPa
Rain
since 9 am
mm
Dir
 
Spd
km/h
Gust
km/h
Spd
kts
Gust
kts
24/11:30pm 9.1 6.2 6.4 83 1.2 NW 11 11 6 6 1018.2 1018.2 2.0
24/11:00pm 9.5 7.3 6.2 80 1.5 NW 7 9 4 5 1018.0 1018.0 2.0
24/10:30pm 9.8 7.1 5.8 76 1.8 W 9 9 5 5 1017.9 1017.9 2.0
24/10:00pm 11.1 8.8 5.8 70 2.5 WSW 7 9 4 5 1017.6 1017.6 2.0
24/09:30pm 12.4 9.4 6.2 66 2.9 SW 11 13 6 7 1017.3 1017.3 2.0
24/09:00pm 13.4 9.3 6.3 62 3.4 WSW 17 26 9 14 1017.1 1017.1 2.0
24/08:30pm 14.0 9.4 6.4 60 3.6 SW 20 28 11 15 1016.6 1016.6 2.0
24/08:00pm 15.0 9.7 6.8 58 4.0 SW 24 37 13 20 1016.2 1016.2 2.0
24/07:30pm 15.8 8.6 5.1 49 5.1 WSW 32 43 17 23 1015.7 1015.7 2.0
24/07:00pm 16.8 10.4 6.9 52 4.9 WSW 30 43 16 23 1015.1 1015.1 2.0
24/06:30pm 17.7 9.6 5.3 44 6.0 SW 37 52 20 28 1014.4 1014.4 2.0
24/06:00pm 17.5 10.1 5.1 44 6.0 WSW 33 52 18 28 1013.9 1013.9 2.0
24/05:30pm 18.6 10.0 4.4 39 6.8 WSW 39 54 21 29 1013.6 1013.6 2.0
24/05:10pm 18.9 9.7 3.5 36 7.2 WSW 41 59 22 32 1013.1 1013.0 2.0
24/05:00pm 19.3 10.1 3.5 35 7.4 WSW 41 54 22 29 1013.1 1013.0 2.0
24/04:30pm 19.4 10.2 3.6 35 7.5 WSW 41 57 22 31 1012.6 1012.5 2.0
24/04:00pm 20.3 11.4 7.0 42 6.8 WSW 43 56 23 30 1012.6 1012.5 2.0
24/03:41pm 21.1 13.2 8.0 43 6.8 WSW 39 59 21 32 1012.4 1012.3 2.0
24/03:30pm 20.7 12.5 8.4 45 6.4 WSW 41 57 22 31 1012.3 1012.2 2.0
24/03:25pm 20.0 12.1 8.0 46 6.2 WSW 39 57 21 31 1012.3 1012.2 2.0
24/03:00pm 19.6 12.1 8.0 47 6.0 WSW 37 52 20 28 1012.4 1012.3 2.0
24/02:30pm 18.6 12.1 9.1 54 5.0 SW 33 48 18 26 1012.4 1012.3 2.0
24/02:00pm 19.6 12.9 8.3 48 5.9 SW 33 46 18 25 1012.5 1012.4 2.0
24/01:30pm 17.8 12.0 10.9 64 3.7 WSW 32 46 17 25 1012.3 1012.2 2.0
24/01:27pm 17.6 11.8 11.6 68 3.3 WSW 33 52 18 28 1012.4 1012.3 2.0
24/01:00pm 19.1 11.8 12.8 67 3.5 SW 43 56 23 30 1011.8 1011.7 1.8
24/12:43pm 22.1 16.6 12.4 54 5.5 WSW 33 54 18 29 1011.3 1011.2 1.8
24/12:30pm 21.5 16.1 12.1 55 5.3 WSW 32 44 17 24 1011.3 1011.2 1.8
24/12:00pm 21.6 17.0 11.0 51 5.9 SW 26 37 14 20 1010.8 1010.7 1.6
24/11:30am 21.8 17.5 10.6 49 6.1 SW 24 35 13 19 1010.8 1010.7 1.2
24/11:00am 21.8 18.2 10.6 49 6.1 SW 20 30 11 16 1010.9 1010.8 0.2
24/10:30am 20.8 17.4 11.4 55 5.2 SW 20 30 11 16 1011.0 1010.9 0.0
24/10:00am 19.6 16.3 11.6 60 4.4 SSW 20 30 11 16 1010.8 1010.7 0.0
24/09:30am 18.7 15.6 11.5 63 4.0 SSW 19 26 10 14 1010.8 1010.7 0.0
24/09:00am 17.9 14.9 12.4 70 3.1 SSW 20 28 11 15 1010.1 1010.0 0.0
24/08:30am 15.7 12.9 12.5 81 1.8 SSW 19 26 10 14 1010.1 1010.0 0.0
24/08:00am 14.7 11.9 12.6 87 1.1 SW 19 28 10 15 1009.2 1009.1 0.0
24/07:30am 14.4 12.7 12.6 89 1.0 SW 13 19 7 10 1009.0 1008.9 0.0
24/07:00am 14.3 12.7 12.9 91 0.8 S 13 19 7 10 1008.1 1008.0 0.0
24/06:30am 14.3 13.0 12.5 89 1.0 SE 11 26 6 14 1007.6 1007.5 0.0
24/06:00am 14.7 13.6 11.8 83 1.6 SE 9 17 5 9 1007.3 1007.2 0.0
24/05:30am 14.9 11.7 11.3 79 1.9 SSW 19 32 10 17 1008.4 1008.3 0.0
24/05:00am 15.5 14.4 10.5 72 2.6 SSE 7 15 4 8 1007.6 1007.5 0.0
24/04:30am 15.3 11.8 10.3 72 2.6 SSW 19 32 10 17 1008.0 1007.9 0.0
24/04:00am 14.9 12.1 10.1 73 2.5 SSW 15 20 8 11 1007.0 1006.9 0.0
24/03:30am 14.4 13.3 10.8 79 1.9 S 7 9 4 5 1006.6 1006.5 0.0
24/03:00am 15.8 14.7 10.6 71 2.8 E 7 11 4 6 1006.6 1006.5 0.0
24/02:30am 15.4 14.3 10.6 73 2.5 E 7 9 4 5 1007.2 1007.1 0.0
24/02:00am 15.3 13.8 10.7 74 2.4 ESE 9 11 5 6 1007.6 1007.5 0.0
24/01:30am 14.8 14.0 9.6 71 2.7 SE 4 6 2 3 1008.6 1008.5 0.0
24/01:00am 14.4 12.5 9.2 71 2.7 SE 9 11 5 6 1008.9 1008.8 0.0
24/12:30am 13.9 11.7 7.9 67 3.0 SE 9 11 5 6 1009.2 1009.1 0.0
24/12:00am 16.2 13.7 8.2 59 4.1 S 11 15 6 8 1010.0 1009.9 0.0
 
Date/Time
CDT
Temp
°C
App
Temp
°C
Dew
Point
Rel
Hum
%
Delta-T
°C
Wind Press
QNH
hPa
Press
MSL
hPa
Rain
since 9 am
mm
Dir
 
Spd
km/h
Gust
km/h
Spd
kts
Gust
kts
23/11:30pm 15.9 13.9 6.9 55 4.4 S 7 11 4 6 1010.4 1010.3 0.0
23/11:00pm 15.6 13.4 6.3 54 4.5 SSE 7 7 4 4 1010.4 1010.3 0.0
23/10:30pm 16.9 14.7 6.1 49 5.3 SSE 7 11 4 6 1010.6 1010.5 0.0
23/10:00pm 17.9 15.4 6.4 47 5.7 S 9 13 5 7 1010.8 1010.7 0.0
23/09:30pm 18.8 15.9 6.3 44 6.2 S 11 15 6 8 1010.6 1010.5 0.0
23/09:00pm 19.8 17.0 5.1 38 7.2 S 9 15 5 8 1010.5 1010.4 0.0
23/08:30pm 19.6 16.5 5.6 40 6.9 S 11 13 6 7 1010.5 1010.4 0.0
23/08:00pm 21.2 18.9 5.6 36 7.8 SSE 7 9 4 5 1010.3 1010.2 0.0
23/07:30pm 23.4 21.0 5.3 31 9.1 S 7 11 4 6 1010.7 1010.6 0.0
23/07:00pm 24.9 21.7 5.2 28 10.0 SW 11 13 6 7 1010.9 1010.8 0.0
23/06:30pm 25.2 22.3 4.9 27 10.3 SSW 9 15 5 8 1010.7 1010.6 0.0
23/06:00pm 25.3 22.0 4.4 26 10.5 SW 11 15 6 8 1010.6 1010.5 0.0
23/05:30pm 26.1 22.1 5.1 26 10.7 WSW 15 22 8 12 1010.9 1010.8 0.0

Other Formats:

Comma delimited format used in spreadsheet applications
http://www.bom.gov.au/fwo/IDS60801/IDS60801.95815.axf

JavaScript Object Notation format (JSON) in row-major order
http://www.bom.gov.au/fwo/IDS60801/IDS60801.95815.json